Time;durP1;ratioP1;P1;durP2;ratioP2;P2;SDS_P1;SDS_P2;PMS_P1;PMS_P2;Temp;Humidity;BMP_temperature;BMP_pressure;BME280_temperature;BME280_humidity;BME280_pressure;Samples;Min_cycle;Max_cycle;Signal;HPM_P1;HPM_P2
2022/11/17 00:01:38;;;;;;;52.63;21.27;;;7.60;99.90;;;;;;5000904;28;20038;-67
2022/11/17 00:04:04;;;;;;;49.50;20.45;;;7.60;99.90;;;;;;5002379;28;20023;-67
2022/11/17 00:06:29;;;;;;;41.45;19.02;;;7.60;99.90;;;;;;5003345;28;20042;-68
2022/11/17 00:08:55;;;;;;;52.47;20.33;;;7.60;99.90;;;;;;4997253;28;20060;-68
2022/11/17 00:11:21;;;;;;;45.08;19.92;;;7.60;99.90;;;;;;4999417;28;20026;-68
2022/11/17 00:16:31;;;;;;;49.95;20.17;;;7.60;99.90;;;;;;4994037;28;20444;-68
2022/11/17 00:21:41;;;;;;;44.88;18.88;;;7.60;99.90;;;;;;5002063;28;20045;-67
2022/11/17 00:24:07;;;;;;;40.55;19.15;;;7.60;99.90;;;;;;4994211;28;20426;-68
2022/11/17 00:26:34;;;;;;;48.92;20.70;;;7.60;99.90;;;;;;4998556;28;20165;-68
2022/11/17 00:29:04;;;;;;;57.75;21.63;;;7.60;99.90;;;;;;4995159;28;20497;-68
2022/11/17 00:34:21;;;;;;;58.75;21.02;;;7.50;99.90;;;;;;4998175;28;20512;-68
2022/11/17 00:36:51;;;;;;;54.20;20.35;;;7.60;99.90;;;;;;4997737;28;20030;-67
2022/11/17 00:39:19;;;;;;;56.55;22.85;;;7.60;99.90;;;;;;4996518;28;20026;-67
2022/11/17 00:41:45;;;;;;;60.90;21.17;;;7.60;99.90;;;;;;4994124;28;20088;-68
2022/11/17 00:44:11;;;;;;;56.13;21.60;;;7.60;99.90;;;;;;5001154;28;20500;-68
2022/11/17 00:46:37;;;;;;;58.00;20.98;;;7.60;99.90;;;;;;4994176;28;20052;-68
2022/11/17 00:49:04;;;;;;;67.90;25.23;;;7.60;99.90;;;;;;4998035;28;20022;-68
2022/11/17 00:51:31;;;;;;;61.53;22.65;;;7.60;99.90;;;;;;5000086;28;20498;-68
2022/11/17 00:53:57;;;;;;;61.30;22.30;;;7.60;99.90;;;;;;5000172;28;20053;-67
2022/11/17 00:56:23;;;;;;;65.22;22.88;;;7.60;99.90;;;;;;4995145;28;20470;-67
2022/11/17 00:58:48;;;;;;;71.80;22.38;;;7.60;99.90;;;;;;4992235;28;20108;-68
2022/11/17 01:01:14;;;;;;;56.17;22.10;;;7.60;99.90;;;;;;4997038;28;20048;-68
2022/11/17 01:03:40;;;;;;;68.55;23.73;;;7.60;99.90;;;;;;5000510;28;20040;-68
2022/11/17 01:06:08;;;;;;;57.03;22.30;;;7.60;99.90;;;;;;4994986;28;20170;-67
2022/11/17 01:08:35;;;;;;;53.58;21.70;;;7.60;99.90;;;;;;4992272;28;20169;-68
2022/11/17 01:11:11;;;;;;;45.28;18.90;;;7.50;99.90;;;;;;4994012;28;20375;-68
2022/11/17 01:13:39;;;;;;;41.85;18.85;;;7.50;99.90;;;;;;5000066;28;20410;-68
2022/11/17 01:16:08;;;;;;;40.67;20.45;;;7.50;99.90;;;;;;4995449;28;20501;-68
2022/11/17 01:18:34;;;;;;;39.58;20.08;;;7.50;99.90;;;;;;4999392;28;20061;-68
2022/11/17 01:21:05;;;;;;;35.70;17.67;;;7.40;99.90;;;;;;5001984;28;20033;-67
2022/11/17 01:23:31;;;;;;;40.75;19.38;;;7.40;99.90;;;;;;4996814;28;20066;-68
2022/11/17 01:26:02;;;;;;;43.47;21.30;;;7.40;99.90;;;;;;4995569;28;20401;-68
2022/11/17 01:28:28;;;;;;;46.63;20.17;;;7.40;99.90;;;;;;4998881;28;20466;-68
2022/11/17 01:31:09;;;;;;;37.60;19.50;;;7.40;99.90;;;;;;4997526;28;20097;-67
2022/11/17 01:33:35;;;;;;;43.78;20.33;;;7.40;99.90;;;;;;4994191;28;20505;-68
2022/11/17 01:36:04;;;;;;;48.28;19.33;;;7.40;99.90;;;;;;5001789;28;20026;-68
2022/11/17 01:38:30;;;;;;;36.20;19.95;;;7.30;99.90;;;;;;4996895;28;20034;-68
2022/11/17 01:41:01;;;;;;;41.45;19.77;;;7.30;99.90;;;;;;5002666;28;20037;-68
2022/11/17 01:43:41;;;;;;;37.55;19.77;;;7.30;99.90;;;;;;4994495;28;20030;-68
2022/11/17 01:46:16;;;;;;;45.60;20.00;;;7.40;99.90;;;;;;5011421;28;20022;-68
2022/11/17 01:48:44;;;;;;;41.15;21.08;;;7.30;99.90;;;;;;4999216;28;20019;-68
2022/11/17 01:51:12;;;;;;;39.10;19.88;;;7.30;99.90;;;;;;4995105;28;20109;-68
2022/11/17 01:53:38;;;;;;;42.28;18.98;;;7.20;99.90;;;;;;4994292;28;20401;-68
2022/11/17 01:56:09;;;;;;;40.83;18.60;;;7.20;99.90;;;;;;4993086;28;20049;-68
2022/11/17 01:58:45;;;;;;;41.38;19.92;;;7.20;99.90;;;;;;4990314;28;20110;-68
2022/11/17 02:01:11;;;;;;;48.33;21.77;;;7.20;99.90;;;;;;4989801;28;20030;-68
2022/11/17 02:03:38;;;;;;;48.65;20.58;;;7.20;99.90;;;;;;5001701;28;20087;-68
2022/11/17 02:06:09;;;;;;;46.85;20.70;;;7.20;99.90;;;;;;4997454;28;20386;-68
2022/11/17 02:08:38;;;;;;;38.47;19.30;;;7.10;99.90;;;;;;4995412;28;20078;-67
2022/11/17 02:11:10;;;;;;;45.70;20.15;;;7.20;99.90;;;;;;4993675;28;20045;-67
2022/11/17 02:13:37;;;;;;;42.97;19.63;;;7.20;99.90;;;;;;5003116;28;20123;-67
2022/11/17 02:16:02;;;;;;;39.25;19.60;;;7.20;99.90;;;;;;4998150;28;20601;-68
2022/11/17 02:18:28;;;;;;;46.83;21.80;;;7.20;99.90;;;;;;5000585;28;20026;-68
2022/11/17 02:21:20;;;;;;;45.72;21.60;;;7.20;99.90;;;;;;4996853;28;20038;-67
2022/11/17 02:23:55;;;;;;;42.95;20.38;;;7.20;99.90;;;;;;4996860;28;20030;-68
2022/11/17 02:26:32;;;;;;;42.55;19.48;;;7.10;99.90;;;;;;4999127;28;20026;-68
2022/11/17 02:29:15;;;;;;;40.70;20.35;;;7.10;99.90;;;;;;5000483;28;20026;-68
2022/11/17 02:32:06;;;;;;;42.80;20.25;;;7.20;99.90;;;;;;4999807;28;20485;-67
2022/11/17 02:34:48;;;;;;;45.17;20.17;;;7.20;99.90;;;;;;4993676;28;20034;-67
2022/11/17 02:37:26;;;;;;;44.10;21.75;;;7.20;99.90;;;;;;5005046;28;20030;-68
2022/11/17 02:40:07;;;;;;;49.13;21.77;;;7.20;99.90;;;;;;5000413;28;20018;-68
2022/11/17 02:45:35;;;;;;;43.42;20.52;;;7.20;99.90;;;;;;4998105;28;20041;-67
2022/11/17 02:48:05;;;;;;;46.63;20.85;;;7.10;99.90;;;;;;5003497;28;20104;-68
2022/11/17 02:50:33;;;;;;;43.55;21.02;;;7.10;99.90;;;;;;5001565;28;20033;-68
2022/11/17 02:52:59;;;;;;;44.15;20.75;;;7.10;99.90;;;;;;5004624;28;20506;-68
2022/11/17 02:55:26;;;;;;;48.58;21.95;;;7.10;99.90;;;;;;4999470;28;20031;-67
2022/11/17 02:57:52;;;;;;;40.72;18.75;;;7.10;99.90;;;;;;5000137;28;20023;-68
2022/11/17 03:00:19;;;;;;;43.90;19.88;;;7.10;99.90;;;;;;4994949;28;20045;-67
2022/11/17 03:03:21;;;;;;;48.88;21.15;;;7.00;99.90;;;;;;5000309;28;20050;-67
2022/11/17 03:06:11;;;;;;;50.65;20.50;;;7.00;99.90;;;;;;5000177;28;20409;-67
2022/11/17 03:08:36;;;;;;;46.17;20.40;;;7.00;99.90;;;;;;4999973;28;20054;-67
2022/11/17 03:11:05;;;;;;;46.42;21.48;;;7.00;99.90;;;;;;5002433;28;20061;-68
2022/11/17 03:13:48;;;;;;;49.53;21.63;;;7.00;99.90;;;;;;4995983;28;20038;-68
2022/11/17 03:16:35;;;;;;;49.97;19.90;;;7.00;99.90;;;;;;4999748;28;20032;-68
2022/11/17 03:19:16;;;;;;;51.20;21.60;;;7.00;99.90;;;;;;4996080;28;20014;-67
2022/11/17 03:21:54;;;;;;;48.35;21.05;;;7.00;99.90;;;;;;4995453;28;20058;-68
2022/11/17 03:24:28;;;;;;;45.72;20.83;;;7.00;99.90;;;;;;4997140;28;20288;-67
2022/11/17 03:27:20;;;;;;;44.17;21.13;;;7.00;99.90;;;;;;4998471;28;20038;-67
2022/11/17 03:29:50;;;;;;;43.75;20.85;;;7.00;99.90;;;;;;5001532;28;20042;-68
2022/11/17 03:32:17;;;;;;;57.77;21.40;;;7.00;99.90;;;;;;5008706;28;20532;-68
2022/11/17 03:35:08;;;;;;;47.40;21.35;;;7.00;99.90;;;;;;4996556;28;20367;-68
2022/11/17 03:37:35;;;;;;;49.80;22.52;;;7.00;99.90;;;;;;5001700;28;20515;-68
2022/11/17 03:40:10;;;;;;;44.85;20.15;;;6.90;99.90;;;;;;4997901;28;20018;-67
2022/11/17 03:42:43;;;;;;;53.35;21.80;;;6.90;99.90;;;;;;4995515;28;20144;-67
2022/11/17 03:45:21;;;;;;;44.47;20.52;;;6.90;99.90;;;;;;4997588;28;20038;-67
2022/11/17 03:47:53;;;;;;;49.03;21.52;;;6.90;99.90;;;;;;4996104;28;20113;-67
2022/11/17 03:50:36;;;;;;;53.15;22.23;;;6.90;99.90;;;;;;5005406;28;20552;-68
2022/11/17 03:53:04;;;;;;;48.42;19.63;;;6.90;99.90;;;;;;4995974;28;20030;-68
2022/11/17 03:55:50;;;;;;;50.28;20.42;;;6.90;99.90;;;;;;4996889;28;20031;-68
2022/11/17 03:58:18;;;;;;;48.97;20.92;;;6.90;99.90;;;;;;4998199;28;20026;-68
2022/11/17 04:00:48;;;;;;;52.88;21.40;;;6.90;99.90;;;;;;4995861;28;20465;-67
2022/11/17 04:03:14;;;;;;;45.90;21.65;;;6.90;99.90;;;;;;4991232;28;20486;-68
2022/11/17 04:05:39;;;;;;;49.47;21.65;;;6.90;99.90;;;;;;4998667;28;20098;-67
2022/11/17 04:08:05;;;;;;;43.65;21.42;;;6.90;99.90;;;;;;4995720;28;20117;-67
2022/11/17 04:15:54;;;;;;;41.17;19.13;;;6.90;99.90;;;;;;4996903;28;20141;-67
2022/11/17 04:16:01;;;;;;;45.42;21.77;;;6.90;99.90;;;;;;4994958;28;20080;-68
2022/11/17 04:18:26;;;;;;;50.70;20.83;;;6.80;99.90;;;;;;4997501;28;20030;-68
2022/11/17 04:20:54;;;;;;;43.25;21.27;;;6.80;99.90;;;;;;4999784;28;20037;-67
2022/11/17 04:23:20;;;;;;;46.53;20.27;;;6.90;99.90;;;;;;5005816;28;20034;-68
2022/11/17 04:28:37;;;;;;;47.60;20.75;;;6.90;99.90;;;;;;4995895;28;20105;-67
2022/11/17 04:31:21;;;;;;;47.63;20.05;;;6.90;99.90;;;;;;4998590;28;20019;-68
2022/11/17 04:33:52;;;;;;;44.30;21.23;;;6.90;99.90;;;;;;4998617;28;20049;-67
2022/11/17 04:36:26;;;;;;;43.08;20.45;;;6.90;99.90;;;;;;4996098;28;20033;-67
2022/11/17 04:38:54;;;;;;;40.33;19.38;;;6.90;99.90;;;;;;4998423;28;20025;-67
2022/11/17 04:44:08;;;;;;;45.33;19.85;;;6.90;99.90;;;;;;4994393;28;20042;-68
2022/11/17 04:46:35;;;;;;;46.10;21.25;;;6.90;99.90;;;;;;4997546;28;20105;-67
2022/11/17 04:49:01;;;;;;;41.75;20.08;;;6.90;99.90;;;;;;4996603;28;20021;-68
2022/11/17 04:51:28;;;;;;;48.83;21.10;;;6.90;99.90;;;;;;4996514;28;20100;-67
2022/11/17 04:53:54;;;;;;;42.53;19.88;;;6.90;99.90;;;;;;4994543;28;20037;-67
2022/11/17 04:56:21;;;;;;;36.63;18.52;;;6.90;99.90;;;;;;4994698;28;20026;-67
2022/11/17 04:58:47;;;;;;;42.40;20.17;;;6.90;99.90;;;;;;4994927;28;20505;-67
2022/11/17 05:01:14;;;;;;;37.85;18.55;;;6.90;99.90;;;;;;4998280;28;20081;-67
2022/11/17 05:03:51;;;;;;;41.90;18.65;;;7.00;99.90;;;;;;4995699;28;20033;-67
2022/11/17 05:06:38;;;;;;;36.78;17.50;;;6.90;99.90;;;;;;4996917;28;20381;-67
2022/11/17 05:09:06;;;;;;;35.88;18.05;;;6.90;99.90;;;;;;4993862;28;20050;-67
2022/11/17 05:14:19;;;;;;;40.97;19.45;;;6.90;99.90;;;;;;4998500;28;20088;-67
2022/11/17 05:17:04;;;;;;;35.35;17.70;;;6.90;99.90;;;;;;4995342;28;20444;-67
2022/11/17 05:19:32;;;;;;;34.88;16.48;;;6.90;99.90;;;;;;4997899;28;20030;-67
2022/11/17 05:21:58;;;;;;;33.08;16.88;;;6.90;99.90;;;;;;4996643;28;20029;-67
2022/11/17 05:24:24;;;;;;;34.97;17.65;;;6.90;99.90;;;;;;4995465;28;20031;-67
2022/11/17 05:26:50;;;;;;;35.75;16.98;;;6.90;99.90;;;;;;4995738;28;20037;-67
2022/11/17 05:29:18;;;;;;;36.70;18.48;;;6.90;99.90;;;;;;4993666;28;20038;-68
2022/11/17 05:31:44;;;;;;;37.28;18.02;;;6.90;99.90;;;;;;4994677;28;20417;-67
2022/11/17 05:34:11;;;;;;;46.88;20.10;;;6.90;99.90;;;;;;4999660;28;20026;-67
2022/11/17 05:36:38;;;;;;;51.80;23.13;;;6.90;99.90;;;;;;4999173;28;20072;-68
2022/11/17 05:39:04;;;;;;;50.35;22.58;;;6.90;99.90;;;;;;4994857;28;20026;-68
2022/11/17 05:41:30;;;;;;;59.80;23.95;;;6.80;99.90;;;;;;4991316;28;20548;-68
2022/11/17 05:43:57;;;;;;;50.53;25.40;;;6.80;99.90;;;;;;4994019;28;20042;-67
2022/11/17 05:46:24;;;;;;;57.22;26.17;;;6.80;99.90;;;;;;5004902;28;20056;-68
2022/11/17 05:48:50;;;;;;;62.15;27.58;;;6.80;99.90;;;;;;5000767;28;20469;-68
2022/11/17 05:51:17;;;;;;;52.30;25.88;;;6.80;99.90;;;;;;4994825;28;20034;-67
2022/11/17 05:53:43;;;;;;;56.63;26.88;;;6.80;99.90;;;;;;4996212;28;20041;-67
2022/11/17 05:56:18;;;;;;;56.67;25.60;;;6.80;99.90;;;;;;5000905;28;20057;-72
2022/11/17 05:58:46;;;;;;;61.47;26.50;;;6.80;99.90;;;;;;4996256;28;20118;-71
2022/11/17 06:01:14;;;;;;;53.70;23.88;;;6.80;99.90;;;;;;4999206;28;20108;-72
2022/11/17 06:03:52;;;;;;;59.67;24.88;;;6.80;99.90;;;;;;5000866;28;20461;-71
2022/11/17 06:06:18;;;;;;;51.95;23.35;;;6.80;99.90;;;;;;4997222;28;20038;-72
2022/11/17 06:08:45;;;;;;;55.15;23.13;;;6.80;99.90;;;;;;4998463;28;20503;-73
2022/11/17 06:11:11;;;;;;;52.70;21.30;;;6.80;99.90;;;;;;5003280;28;20026;-72
2022/11/17 06:13:37;;;;;;;53.30;23.25;;;6.80;99.90;;;;;;4996771;28;20117;-71
2022/11/17 06:16:06;;;;;;;56.10;23.67;;;6.90;99.90;;;;;;4997043;28;20474;-72
2022/11/17 06:18:40;;;;;;;56.95;23.58;;;6.80;99.90;;;;;;4998046;28;20023;-72
2022/11/17 06:21:08;;;;;;;49.72;22.17;;;6.80;99.90;;;;;;5001096;28;20086;-72
2022/11/17 06:23:35;;;;;;;44.28;21.63;;;6.90;99.90;;;;;;5000172;28;20487;-72
2022/11/17 06:26:04;;;;;;;50.83;22.38;;;6.90;99.90;;;;;;4997607;28;20030;-72
2022/11/17 06:28:32;;;;;;;48.38;21.63;;;6.80;99.90;;;;;;5000823;28;20092;-67
2022/11/17 06:30:58;;;;;;;48.85;22.48;;;6.80;99.90;;;;;;4994992;28;20073;-68
2022/11/17 06:33:25;;;;;;;48.03;21.42;;;6.80;99.90;;;;;;4997226;28;20084;-67
2022/11/17 06:35:51;;;;;;;49.75;21.55;;;6.80;99.90;;;;;;4991447;28;20472;-67
2022/11/17 06:38:17;;;;;;;47.08;18.48;;;6.80;99.90;;;;;;4999633;28;20512;-67
2022/11/17 06:40:42;;;;;;;44.25;19.60;;;6.80;99.90;;;;;;5003937;28;20129;-67
2022/11/17 06:43:08;;;;;;;47.88;19.35;;;6.80;99.90;;;;;;5003687;28;20026;-67
2022/11/17 06:45:42;;;;;;;43.90;20.55;;;6.80;99.90;;;;;;4998274;28;20076;-67
2022/11/17 06:48:09;;;;;;;50.95;20.60;;;6.80;99.90;;;;;;4998374;28;20073;-66
2022/11/17 06:50:35;;;;;;;39.15;18.95;;;6.90;99.90;;;;;;4998667;28;20440;-67
2022/11/17 06:53:03;;;;;;;45.05;20.85;;;6.90;99.90;;;;;;4995249;28;20038;-67
2022/11/17 06:55:29;;;;;;;42.60;19.88;;;6.90;99.90;;;;;;4998187;28;20030;-67
2022/11/17 06:58:00;;;;;;;46.97;19.63;;;6.90;99.90;;;;;;4999779;28;20583;-68
2022/11/17 07:00:26;;;;;;;;;;;6.90;99.90;;;;;;4996366;28;20038;-68
2022/11/17 07:02:52;;;;;;;39.97;19.83;;;6.90;99.90;;;;;;4999004;28;19909;-67
2022/11/17 07:05:17;;;;;;;43.92;20.15;;;6.90;99.90;;;;;;4995159;28;20038;-67
2022/11/17 07:07:43;;;;;;;42.42;20.15;;;6.90;99.90;;;;;;4999173;28;20648;-67
2022/11/17 07:10:09;;;;;;;42.67;20.05;;;6.90;99.90;;;;;;4999862;28;20030;-67
2022/11/17 07:12:34;;;;;;;47.88;20.65;;;6.90;99.90;;;;;;5002550;28;20057;-66
2022/11/17 07:15:00;;;;;;;46.35;19.42;;;6.90;99.90;;;;;;5000357;28;20117;-67
2022/11/17 07:17:27;;;;;;;42.22;21.15;;;6.90;99.90;;;;;;5015773;28;20112;-67
2022/11/17 07:19:53;;;;;;;50.35;20.67;;;6.90;99.90;;;;;;4991862;28;20026;-67
2022/11/17 07:22:19;;;;;;;47.33;20.75;;;6.90;99.90;;;;;;4998825;28;20034;-67
2022/11/17 07:24:45;;;;;;;43.47;20.23;;;6.90;99.90;;;;;;4995838;28;20030;-67
2022/11/17 07:27:10;;;;;;;53.15;21.38;;;6.90;99.90;;;;;;4998636;28;20390;-67
2022/11/17 07:29:36;;;;;;;45.85;21.70;;;6.90;99.90;;;;;;4997935;28;20118;-67
2022/11/17 07:32:01;;;;;;;57.92;21.00;;;6.90;99.90;;;;;;4995128;28;20026;-67
2022/11/17 07:34:27;;;;;;;41.53;19.42;;;6.90;99.90;;;;;;4992846;28;20093;-67
2022/11/17 07:36:53;;;;;;;52.45;20.13;;;6.90;99.90;;;;;;4996478;28;20117;-67
2022/11/17 07:39:18;;;;;;;43.78;19.45;;;6.90;99.90;;;;;;4997411;28;20172;-67
2022/11/17 07:41:44;;;;;;;45.42;18.17;;;6.90;99.90;;;;;;4996680;28;20054;-67
2022/11/17 07:44:10;;;;;;;50.80;19.08;;;6.90;99.90;;;;;;4995819;28;20041;-66
2022/11/17 07:46:36;;;;;;;49.15;18.35;;;6.90;99.90;;;;;;4999044;28;20373;-67
2022/11/17 07:49:02;;;;;;;44.05;17.60;;;6.90;99.90;;;;;;4997712;28;20497;-68
2022/11/17 07:51:27;;;;;;;37.42;17.17;;;6.90;99.90;;;;;;4983556;28;20499;-67
2022/11/17 07:53:53;;;;;;;38.00;17.38;;;6.90;99.90;;;;;;4999868;28;20489;-68
2022/11/17 07:56:19;;;;;;;40.03;17.50;;;6.90;99.90;;;;;;4997485;28;20042;-67
2022/11/17 07:58:44;;;;;;;39.30;17.73;;;6.90;99.90;;;;;;4993242;28;20087;-67
2022/11/17 08:01:14;;;;;;;37.63;17.58;;;7.00;99.90;;;;;;4998954;28;20038;-67
2022/11/17 08:03:40;;;;;;;37.78;17.00;;;7.00;99.90;;;;;;4999688;28;20030;-67
2022/11/17 08:06:08;;;;;;;43.10;18.52;;;7.00;99.90;;;;;;5003283;28;20053;-67
2022/11/17 08:08:34;;;;;;;39.33;18.33;;;7.10;99.90;;;;;;4998967;28;20408;-67
2022/11/17 08:11:05;;;;;;;38.45;16.60;;;7.20;99.90;;;;;;4994740;28;20027;-68
2022/11/17 08:13:31;;;;;;;33.60;17.00;;;7.20;99.90;;;;;;4995827;28;20048;-68
2022/11/17 08:16:00;;;;;;;31.20;14.65;;;7.20;99.90;;;;;;4996148;28;20054;-68
2022/11/17 08:18:27;;;;;;;30.20;14.65;;;7.20;99.90;;;;;;4972800;28;20042;-67
2022/11/17 08:21:13;;;;;;;35.53;16.88;;;7.10;99.90;;;;;;4978959;28;20031;-67
2022/11/17 08:23:40;;;;;;;33.20;16.30;;;7.10;99.90;;;;;;4976094;28;20066;-67
2022/11/17 08:26:09;;;;;;;39.78;16.80;;;7.10;99.90;;;;;;4976071;28;20023;-67
2022/11/17 08:28:35;;;;;;;34.00;16.17;;;7.10;99.90;;;;;;4973766;28;20049;-69
2022/11/17 08:31:03;;;;;;;29.23;15.52;;;7.20;99.90;;;;;;4978054;28;20446;-68
2022/11/17 08:33:28;;;;;;;32.05;14.98;;;7.20;99.90;;;;;;4977186;28;20046;-68
2022/11/17 08:35:58;;;;;;;26.25;13.77;;;7.20;99.90;;;;;;4978028;28;20039;-68
2022/11/17 08:38:27;;;;;;;24.23;12.75;;;7.20;99.90;;;;;;4977709;28;20457;-68
2022/11/17 08:40:57;;;;;;;26.45;12.70;;;7.20;99.90;;;;;;4978509;28;20046;-69
2022/11/17 08:43:23;;;;;;;25.42;12.68;;;7.10;99.90;;;;;;4977484;28;20027;-68
2022/11/17 08:45:49;;;;;;;21.77;11.65;;;7.10;99.90;;;;;;4975894;28;20466;-68
2022/11/17 08:48:15;;;;;;;24.52;11.05;;;7.10;99.90;;;;;;4971575;28;20089;-69
2022/11/17 08:50:40;;;;;;;17.90;10.93;;;7.10;99.90;;;;;;4975098;28;20027;-68
2022/11/17 08:53:14;;;;;;;17.40;10.50;;;7.10;99.90;;;;;;4973544;28;20062;-68
2022/11/17 08:55:39;;;;;;;18.92;9.93;;;7.10;99.90;;;;;;4975760;28;20069;-68
2022/11/17 08:58:05;;;;;;;18.75;9.80;;;7.10;99.90;;;;;;4977325;28;20049;-70
2022/11/17 09:00:31;;;;;;;19.77;9.90;;;7.20;99.90;;;;;;4976615;28;20033;-68
2022/11/17 09:02:56;;;;;;;19.13;8.65;;;7.20;99.90;;;;;;4973054;28;20637;-68
2022/11/17 09:05:23;;;;;;;17.33;9.30;;;7.20;99.90;;;;;;4977131;28;20038;-68
2022/11/17 09:07:49;;;;;;;15.23;10.38;;;7.20;99.90;;;;;;4976726;28;20108;-68
2022/11/17 09:10:15;;;;;;;18.15;9.10;;;7.20;99.90;;;;;;4976956;28;20622;-68
2022/11/17 09:12:41;;;;;;;15.32;8.63;;;7.20;99.90;;;;;;4973668;28;20070;-69
2022/11/17 09:15:08;;;;;;;16.58;9.18;;;7.20;99.90;;;;;;4973281;28;20490;-68
2022/11/17 09:17:34;;;;;;;15.10;9.40;;;7.20;99.90;;;;;;4975528;28;20125;-68
2022/11/17 09:20:00;;;;;;;16.90;9.95;;;7.20;99.90;;;;;;4975666;28;20074;-68
2022/11/17 09:22:26;;;;;;;21.63;12.05;;;7.30;99.90;;;;;;4977876;28;20027;-68
2022/11/17 09:24:52;;;;;;;19.30;11.60;;;7.40;99.90;;;;;;4976440;28;20572;-69
2022/11/17 09:27:18;;;;;;;22.60;11.68;;;7.40;99.90;;;;;;4978512;28;20405;-69
2022/11/17 09:29:43;;;;;;;19.52;11.77;;;7.50;99.90;;;;;;4977198;28;20042;-68
2022/11/17 09:32:09;;;;;;;24.65;13.40;;;7.50;99.90;;;;;;4972795;28;20509;-68
2022/11/17 09:34:34;;;;;;;27.50;13.80;;;7.50;99.90;;;;;;4976927;28;20065;-68
2022/11/17 09:37:00;;;;;;;24.33;12.95;;;7.60;99.90;;;;;;4976055;28;20034;-70
2022/11/17 09:39:26;;;;;;;24.95;14.10;;;7.70;99.90;;;;;;4973257;28;20026;-68
2022/11/17 09:41:54;;;;;;;15.60;12.10;;;7.90;99.90;;;;;;4977500;28;20448;-69
2022/11/17 09:44:40;;;;;;;13.60;9.90;;;8.20;99.90;;;;;;4976301;28;20030;-69
2022/11/17 09:47:12;;;;;;;11.25;8.52;;;8.20;99.90;;;;;;4974728;28;20113;-69
2022/11/17 09:49:52;;;;;;;15.02;9.30;;;8.30;99.90;;;;;;4978714;28;20027;-69
2022/11/17 09:52:30;;;;;;;9.90;6.82;;;8.60;99.90;;;;;;4973953;28;20478;-69
2022/11/17 09:54:58;;;;;;;8.20;6.25;;;8.80;99.90;;;;;;4976016;28;20030;-68
2022/11/17 09:57:40;;;;;;;10.02;5.97;;;8.70;99.90;;;;;;4979663;28;20043;-68
2022/11/17 10:00:14;;;;;;;6.30;5.30;;;8.40;99.90;;;;;;4977278;28;20035;-69
2022/11/17 10:02:44;;;;;;;6.18;5.40;;;8.50;99.90;;;;;;4975011;28;20031;-68
2022/11/17 10:05:33;;;;;;;5.65;4.95;;;9.20;99.90;;;;;;4975063;28;20045;-69
2022/11/17 10:08:07;;;;;;;5.40;4.90;;;9.70;99.90;;;;;;4978991;28;20039;-69
2022/11/17 10:10:38;;;;;;;4.45;4.00;;;9.80;99.90;;;;;;4972303;28;20551;-69
2022/11/17 10:13:09;;;;;;;4.90;4.40;;;9.80;99.90;;;;;;4975896;28;20079;-69
2022/11/17 10:15:46;;;;;;;5.72;4.45;;;9.70;99.90;;;;;;4974953;28;20023;-68
2022/11/17 10:18:14;;;;;;;5.95;4.63;;;9.60;99.90;;;;;;4982087;28;20791;-69
2022/11/17 10:20:41;;;;;;;4.47;4.05;;;9.40;99.90;;;;;;4976215;28;20062;-68
2022/11/17 10:23:14;;;;;;;5.68;5.18;;;9.40;99.90;;;;;;4989728;28;20023;-68
2022/11/17 10:25:42;;;;;;;6.70;4.60;;;9.30;99.90;;;;;;4978931;28;20132;-68
2022/11/17 10:28:22;;;;;;;6.40;4.47;;;9.10;99.90;;;;;;4977411;28;20138;-68
2022/11/17 10:30:53;;;;;;;6.23;4.87;;;9.00;99.90;;;;;;4978322;28;20100;-68
2022/11/17 10:33:38;;;;;;;6.20;5.35;;;8.70;99.90;;;;;;4981971;28;20034;-69
2022/11/17 10:36:13;;;;;;;6.10;5.47;;;8.40;99.90;;;;;;4980887;28;20514;-68
2022/11/17 10:38:45;;;;;;;6.93;6.22;;;8.20;99.90;;;;;;4985233;28;20519;-68
2022/11/17 10:41:16;;;;;;;11.00;7.40;;;8.10;99.90;;;;;;4981344;28;20046;-69
2022/11/17 10:44:11;;;;;;;9.73;8.02;;;8.00;99.90;;;;;;4984452;28;20589;-69
2022/11/17 10:46:59;;;;;;;9.60;7.28;;;7.90;99.90;;;;;;4971891;28;20026;-69
2022/11/17 10:49:33;;;;;;;10.52;7.95;;;7.90;99.90;;;;;;4980819;28;20109;-69
2022/11/17 10:52:08;;;;;;;14.50;7.47;;;7.80;99.90;;;;;;4976073;28;20023;-69
2022/11/17 10:54:33;;;;;;;10.43;8.23;;;7.80;99.90;;;;;;4991668;28;20046;-69
2022/11/17 10:57:00;;;;;;;10.27;8.35;;;7.70;99.90;;;;;;4981476;28;20041;-68
2022/11/17 10:59:32;;;;;;;12.40;9.10;;;7.80;99.90;;;;;;4977832;28;20054;-68
2022/11/17 11:02:17;;;;;;;;;;;7.80;99.90;;;;;;4980691;28;20502;-68
2022/11/17 11:04:43;;;;;;;15.38;10.25;;;7.80;99.90;;;;;;4991700;28;19969;-69
2022/11/17 11:07:22;;;;;;;18.38;10.68;;;7.80;99.90;;;;;;4977498;28;20030;-69
2022/11/17 11:10:06;;;;;;;22.15;12.95;;;7.80;99.90;;;;;;4975986;28;21034;-69
2022/11/17 11:12:35;;;;;;;18.65;12.07;;;7.80;99.90;;;;;;4972087;28;20101;-69
2022/11/17 11:15:02;;;;;;;21.45;13.45;;;7.80;99.90;;;;;;4979756;28;20045;-69
2022/11/17 11:17:28;;;;;;;24.75;13.98;;;7.80;99.90;;;;;;4977059;28;20045;-68
2022/11/17 11:19:55;;;;;;;22.00;14.15;;;7.80;99.90;;;;;;4974593;28;20035;-69
2022/11/17 11:22:51;;;;;;;22.40;14.10;;;7.80;99.90;;;;;;4973258;28;20113;-70
2022/11/17 11:25:39;;;;;;;19.17;12.88;;;7.90;99.90;;;;;;4977207;28;20045;-69
2022/11/17 11:28:32;;;;;;;15.73;11.95;;;8.00;99.90;;;;;;4975309;28;20057;-70
2022/11/17 11:31:08;;;;;;;14.20;11.40;;;8.20;99.90;;;;;;4975388;28;20109;-69
2022/11/17 11:33:41;;;;;;;10.75;9.60;;;8.40;99.90;;;;;;4973407;28;20505;-69
2022/11/17 11:36:39;;;;;;;10.05;9.15;;;8.60;99.90;;;;;;4983182;28;20038;-69
2022/11/17 11:39:49;;;;;;;10.30;7.97;;;8.80;99.90;;;;;;4956661;28;20403;-69
2022/11/17 11:42:21;;;;;;;8.80;6.30;;;8.90;99.90;;;;;;4936304;28;20027;-69
2022/11/17 11:45:05;;;;;;;7.15;6.28;;;8.80;99.90;;;;;;4937232;29;20035;-69
2022/11/17 11:47:36;;;;;;;8.50;6.47;;;8.70;99.90;;;;;;4964625;28;20042;-69
2022/11/17 11:50:14;;;;;;;6.72;6.13;;;8.60;99.90;;;;;;4977871;28;20529;-69
2022/11/17 11:52:46;;;;;;;6.47;5.60;;;8.60;99.90;;;;;;4976651;28;20912;-69
2022/11/17 11:55:26;;;;;;;6.32;5.28;;;8.60;99.90;;;;;;4983862;28;20054;-69
2022/11/17 11:58:05;;;;;;;8.05;6.57;;;8.60;99.90;;;;;;4977320;28;20030;-69
2022/11/17 12:00:32;;;;;;;7.88;6.18;;;8.60;99.90;;;;;;4977061;28;20042;-69
2022/11/17 12:03:19;;;;;;;10.88;7.05;;;8.60;99.90;;;;;;4978904;28;20085;-68
2022/11/17 12:05:45;;;;;;;9.98;7.20;;;8.50;99.90;;;;;;4978845;28;21009;-69
2022/11/17 12:08:19;;;;;;;7.57;6.68;;;8.50;99.90;;;;;;4977198;28;20126;-69
2022/11/17 12:11:59;;;;;;;10.02;7.10;;;8.50;99.90;;;;;;4976632;28;20049;-69
2022/11/17 12:13:52;;;;;;;8.57;6.57;;;8.60;99.90;;;;;;4977710;28;20042;-69
2022/11/17 12:16:27;;;;;;;7.78;7.07;;;8.60;99.90;;;;;;4968027;28;20038;-69
2022/11/17 12:18:52;;;;;;;8.98;6.95;;;8.60;99.90;;;;;;4981485;28;20025;-70
2022/11/17 12:21:26;;;;;;;12.65;6.72;;;8.50;99.90;;;;;;4979344;28;20031;-70
2022/11/17 12:24:09;;;;;;;10.75;7.65;;;8.50;99.90;;;;;;4975626;28;20490;-70
2022/11/17 12:26:35;;;;;;;7.28;6.53;;;8.50;99.90;;;;;;4975686;28;20490;-71
2022/11/17 12:29:19;;;;;;;14.30;7.82;;;8.50;99.90;;;;;;4981252;28;20039;-71
2022/11/17 12:31:49;;;;;;;9.75;7.35;;;8.40;99.90;;;;;;4978253;28;20027;-71
2022/11/17 12:34:29;;;;;;;9.23;8.10;;;8.40;99.90;;;;;;4974783;28;20029;-70
2022/11/17 12:37:22;;;;;;;14.05;8.13;;;8.40;99.90;;;;;;4977058;28;20702;-70
2022/11/17 12:40:06;;;;;;;9.88;8.48;;;8.40;99.90;;;;;;4951023;28;20049;-71
2022/11/17 12:42:34;;;;;;;10.63;8.75;;;8.40;99.90;;;;;;4974802;28;20045;-69
2022/11/17 12:45:08;;;;;;;10.93;9.32;;;8.40;99.90;;;;;;4976207;28;20023;-69
2022/11/17 12:47:35;;;;;;;20.33;9.57;;;8.40;99.90;;;;;;4994248;28;20439;-69
2022/11/17 12:50:30;;;;;;;24.17;11.15;;;8.40;99.90;;;;;;4981509;28;20113;-69
2022/11/17 12:53:08;;;;;;;12.07;10.40;;;8.40;99.90;;;;;;4976298;28;20029;-69
2022/11/17 12:55:33;;;;;;;18.17;10.05;;;8.50;99.90;;;;;;4975808;28;20105;-69
2022/11/17 12:58:14;;;;;;;22.25;12.90;;;8.50;99.90;;;;;;4973196;28;20118;-70
2022/11/17 13:01:07;;;;;;;17.92;12.48;;;8.50;99.90;;;;;;4981821;28;20384;-70
2022/11/17 13:03:53;;;;;;;22.40;10.73;;;8.50;99.90;;;;;;4981624;28;20035;-70
2022/11/17 13:06:19;;;;;;;47.00;11.10;;;8.50;99.90;;;;;;4975743;28;20038;-70
2022/11/17 13:09:04;;;;;;;22.88;9.82;;;8.50;99.90;;;;;;4977751;28;20039;-70
2022/11/17 13:11:30;;;;;;;22.75;13.57;;;8.50;99.90;;;;;;4972254;28;20031;-70
2022/11/17 13:14:13;;;;;;;34.03;13.65;;;8.50;99.90;;;;;;4978571;28;20552;-70
2022/11/17 13:16:49;;;;;;;25.15;12.07;;;8.50;99.90;;;;;;4978235;28;20084;-69
2022/11/17 13:19:40;;;;;;;21.02;10.80;;;8.50;99.90;;;;;;4975666;28;20034;-69
2022/11/17 13:22:14;;;;;;;13.83;11.50;;;8.40;99.90;;;;;;4976917;28;20540;-70
2022/11/17 13:24:45;;;;;;;22.13;12.15;;;8.40;99.90;;;;;;4976241;28;20046;-70